GET weather

Geraldton Airport
Geraldton, Western Australia, Australia

Public forecast

Using degrees Celsius for public forecast. Weather courtesy of forecast.io.

Current aviation weather report (METAR) for Geraldton Airport

Retrieved 2019/12/10 16:30 UTC (0 seconds ago):

YGEL 101630Z AUTO 17015KT 9999 // NCD 22/17 Q1011 RF000/0000

Aviation forecast (TAF) for Geraldton Airport

Forecast is more than 6 hours old.

Retrieved 2019/12/10 06:00 UTC (10 hours ago):

TAF YGEL 100502Z 1006/1100 19024G34KT CAVOK FM101100 17015G25KT CAVOK FM102000 14012KT CAVOK